METAR Data
IDs: Format: Raw Decoded Include TAF

Data at: 1755 UTC 21 Sep 2018

KE38 211735Z AUTO 02005KT 10SM SCT034 BKN042 BKN049 24/15 A3019 RMK AO2 T02410154
KE38 211715Z AUTO 01007KT 10SM BKN034 OVC041 24/15 A3019 RMK AO2 T02400153
KE38 211655Z AUTO 02004KT 10SM BKN034 BKN041 23/15 A3019 RMK AO2 T02340151
KE38 211635Z AUTO 03006KT 10SM SCT031 SCT040 24/15 A3019 RMK AO2 T02390151
KE38 211615Z AUTO 02004KT 10SM BKN031 24/16 A3019 RMK AO2 T02400156
KE38 211555Z AUTO 04006KT 320V060 10SM SCT031 SCT100 24/16 A3017 RMK AO2 T02390158
KE38 211535Z AUTO 01005KT 10SM CLR 23/15 A3017 RMK AO2 T02280151
KE38 211515Z AUTO 00000KT 10SM CLR 22/16 A3016 RMK AO2 T02180155
KE38 211455Z AUTO 00000KT 10SM CLR 21/16 A3015 RMK AO2 T02140158
KE38 211435Z AUTO 18003KT 10SM CLR 21/16 A3015 RMK AO2 T02070160
KE38 211415Z AUTO 22005KT 10SM CLR 20/17 A3015 RMK AO2 T01970166
KE38 211355Z AUTO 21004KT 10SM CLR 19/17 A3015 RMK AO2 T01880165
KE38 211335Z AUTO 20004KT 10SM CLR 18/16 A3013 RMK AO2 T01800162
KE38 211315Z AUTO 00000KT 10SM CLR 17/15 A3013 RMK AO2 T01660154
KE38 211255Z AUTO 18004KT 10SM CLR 16/15 A3012 RMK AO2 LTG DSNT E T01570150
KE38 211235Z AUTO 23004KT 10SM CLR 17/15 A3012 RMK AO2 T01660151
KE38 211215Z AUTO 23004KT 10SM CLR 17/16 A3011 RMK AO2 T01660155
KE38 211155Z AUTO 24006KT 10SM CLR 17/16 A3011 RMK AO2 70012 T01690157 10185 20165
KE38 211135Z AUTO 24004KT 10SM CLR 17/16 A3010 RMK AO2 T01670156
KE38 211115Z AUTO 25007KT 10SM CLR 18/16 A3009 RMK AO2 T01750161
KE38 211055Z AUTO 23007KT 10SM CLR 17/16 A3008 RMK AO2 LTG DSNT E T01740162
KE38 211035Z AUTO 23006KT 10SM CLR 18/16 A3008 RMK AO2 T01750162
KE38 211015Z AUTO 25008KT 10SM CLR 17/16 A3008 RMK AO2 LTG DSNT NE T01710162
KE38 210955Z AUTO 23004KT 10SM CLR 17/16 A3008 RMK AO2 T01710162
KE38 210935Z AUTO 25005KT 10SM CLR 18/16 A3008 RMK AO2 T01750163
KE38 210915Z AUTO 24005KT 10SM CLR 18/17 A3008 RMK AO2 LTG DSNT E T01780165
KE38 210855Z AUTO 23006KT 10SM CLR 18/17 A3008 RMK AO2 LTG DSNT E T01780166
KE38 210835Z AUTO 24005KT 10SM CLR 18/17 A3008 RMK AO2 LTG DSNT NE T01800167
KE38 210815Z AUTO 22006KT 10SM CLR 18/17 A3008 RMK AO2 LTG DSNT E T01820167
KE38 210755Z AUTO 19004KT 10SM BKN050 BKN100 18/17 A3008 RMK AO2 LTG DSNT E T01820172
KE38 210735Z AUTO 24004KT 10SM SCT039 OVC050 19/18 A3008 RMK AO2 LTG DSNT E T01850179
KE38 210715Z AUTO 24005KT 10SM VCTS SCT031 BKN039 OVC050 18/18 A3008 RMK AO2 LTG DSNT E T01810176
KE38 210655Z AUTO 24009KT 10SM SCT015 BKN035 OVC050 18/18 A3008 RMK AO2 LTG DSNT NE AND E T01800175
KE38 210635Z AUTO 26007KT 10SM SCT017 OVC055 18/18 A3009 RMK AO2 LTG DSNT E T01800176
KE38 210615Z AUTO 00000KT 10SM BKN021 BKN044 OVC080 18/18 A3008 RMK AO2 LTG DSNT E T01810177
KE38 210555Z AUTO 24008KT 10SM SCT044 SCT070 BKN090 18/18 A3009 RMK AO2 LTG DSNT E 60010 T01820177 10222 20181 402550179
KE38 210535Z AUTO 22010KT 10SM SCT021 BKN070 OVC090 18/18 A3008 RMK AO2 LTG DSNT NE AND E T01820178
KE38 210515Z AUTO 21007KT 10SM SCT021 BKN026 OVC070 18/18 A3009 RMK AO2 LTG DSNT NE AND E T01820178
KE38 210455Z AUTO 23006KT 10SM SCT022 BKN031 BKN038 18/18 A3009 RMK AO2 LTG DSNT NE P0001 T01820178
KE38 210435Z AUTO 21006KT 10SM SCT023 BKN034 OVC055 18/18 A3008 RMK AO2 LTG DSNT NE P0001 T01830179
KE38 210415Z AUTO 18006KT 10SM SCT033 BKN041 OVC060 18/18 A3008 RMK AO2 LTG DSNT NE T01820177
KE38 210355Z AUTO 22006KT 10SM SCT031 BKN060 OVC070 18/18 A3009 RMK AO2 LTG DSNT NE P0006 T01820177
KE38 210335Z AUTO 22005KT 7SM SCT016 SCT033 OVC050 18/18 A3008 RMK AO2 LTG DSNT NE P0006 T01820177
KE38 210315Z AUTO 22010KT 4SM SCT016 BKN039 OVC120 19/18 A3008 RMK AO2 LTG DSNT NE P0005 T01870176
KE38 210250Z AUTO 23004KT 10SM SCT027 SCT049 OVC095 19/18 A3007 RMK AO2 LTG DSNT NE P0003 60003 T01930175
KE38 210235Z AUTO 22011KT 10SM SCT026 BKN047 OVC095 20/18 A3007 RMK AO2 LTG DSNT NE P0003 T01970175
KE38 210215Z AUTO 27014G17KT 10SM SCT026 BKN033 OVC060 21/18 A3006 RMK AO2 LTG DSNT NE P0001 T02110179
KE38 210155Z AUTO 22005KT 10SM SCT049 SCT055 BKN070 21/18 A3004 RMK AO2 T02120175
KE38 210135Z AUTO 20008KT 10SM SCT055 SCT080 SCT100 22/17 A3003 RMK AO2 LTG DSNT E T02150172
KE38 210115Z AUTO 20008KT 10SM SCT055 SCT120 21/17 A3003 RMK AO2 LTG DSNT E T02130173
KE38 210055Z AUTO 19007KT 10SM SCT070 SCT120 21/17 A3002 RMK AO2 T02120173
KE38 210035Z AUTO 21008KT 10SM SCT070 22/17 A3001 RMK AO2 T02180173
KE38 210015Z AUTO 19008KT 10SM SCT031 SCT035 BKN070 22/17 A3001 RMK AO2 T02200173
KE38 202355Z AUTO 19010KT 10SM SCT033 SCT055 BKN070 22/17 A3000 RMK AO2 LTG DSNT W P0002 60002 T02210174 10255 20206
KE38 202335Z AUTO 19009KT 10SM SCT029 SCT038 OVC070 22/18 A3000 RMK AO2 P0002 T02160181
KE38 202315Z AUTO 27006KT 5SM SCT024 BKN042 OVC050 21/18 A3001 RMK AO2 P0002 T02090184
KE38 202255Z AUTO 16012KT 10SM SCT032 BKN060 OVC070 23/16 A3000 RMK AO2 T02340163
KE38 202235Z AUTO 17009KT 10SM SCT031 BKN070 OVC080 25/16 A3000 RMK AO2 T02500163
KE38 202215Z AUTO 19010KT 10SM SCT028 BKN080 OVC120 24/16 A3000 RMK AO2 T02400161
KE38 202155Z AUTO 19012G15KT 10SM SCT028 SCT036 BKN080 24/16 A3000 RMK AO2 T02430162
KE38 202135Z AUTO 18012KT 10SM SCT035 SCT041 OVC070 24/16 A3001 RMK AO2 T02390156
KE38 202115Z AUTO 19013G17KT 10SM SCT038 OVC070 24/15 A3001 RMK AO2 T02430154
KE38 202055Z AUTO 18014G19KT 10SM SCT034 BKN075 OVC090 24/15 A3001 RMK AO2 T02430153
KE38 202035Z AUTO 21012G21KT 10SM SCT035 BKN090 OVC110 24/16 A3003 RMK AO2 T02440157
KE38 202015Z AUTO 20012G19KT 10SM SCT037 SCT090 OVC110 25/15 A3003 RMK AO2 T02500154
KE38 201955Z AUTO 19010G17KT 10SM SCT090 BKN120 25/16 A3004 RMK AO2 T02460155
KE38 201935Z AUTO 20015G20KT 10SM SCT032 BKN090 24/15 A3004 RMK AO2 T02440149
KE38 201915Z AUTO 20013G19KT 10SM SCT030 OVC090 24/16 A3006 RMK AO2 T02400157
KE38 201855Z AUTO 20014G17KT 10SM SCT032 OVC080 24/16 A3007 RMK AO2 T02360157
KE38 201835Z AUTO 20011G17KT 10SM SCT032 OVC080 24/16 A3008 RMK AO2 T02390156
KE38 201815Z AUTO 21011G14KT 10SM SCT030 BKN070 OVC100 23/16 A3008 RMK AO2 T02340158
KE38 201755Z AUTO 19012G17KT 10SM SCT030 OVC090 23/16 A3009 RMK AO2 T02300156 10230 20181
KE38 201735Z AUTO 20010KT 10SM SCT030 BKN090 OVC110 22/16 A3009 RMK AO2 T02220157
KE38 201715Z AUTO 20012G17KT 10SM SCT021 SCT070 OVC100 22/16 A3009 RMK AO2 T02190160
KE38 201655Z AUTO 20012G16KT 10SM SCT021 SCT075 OVC110 22/16 A3010 RMK AO2 T02220161
KE38 201635Z AUTO 20011G16KT 10SM OVC120 22/16 A3010 RMK AO2 T02180156
KE38 201615Z AUTO 19013G17KT 10SM SCT049 BKN110 22/16 A3010 RMK AO2 T02190157
KE38 201555Z AUTO 19014G21KT 10SM SCT049 SCT110 22/15 A3010 RMK AO2 T02220153
KE38 201535Z AUTO 20017G21KT 10SM SCT037 SCT065 BKN110 22/15 A3009 RMK AO2 T02220152
KE38 201515Z AUTO 20014G17KT 10SM SCT120 22/15 A3009 RMK AO2 T02220153
KE38 201455Z AUTO 20009KT 10SM CLR 21/16 A3009 RMK AO2 T02130156
KE38 201435Z AUTO 19011KT 10SM CLR 21/16 A3009 RMK AO2 T02070155
KE38 201415Z AUTO 20008KT 10SM SCT075 20/15 A3009 RMK AO2 T02000153
KE38 201355Z AUTO 20008KT 10SM BKN075 20/15 A3008 RMK AO2 T01950154
KE38 201335Z AUTO 19009KT 10SM SCT075 OVC080 19/15 A3007 RMK AO2 T01920153
KE38 201315Z AUTO 20007KT 10SM SCT060 BKN075 OVC110 19/15 A3007 RMK AO2 T01870153
KE38 201255Z AUTO 21006KT 10SM SCT065 BKN075 OVC120 19/15 A3007 RMK AO2 T01870152
KE38 201235Z AUTO 00000KT 10SM SCT065 SCT080 OVC120 18/15 A3006 RMK AO2 T01840153
KE38 201215Z AUTO 00000KT 10SM BKN120 18/15 A3006 RMK AO2 T01820153
KE38 201155Z AUTO 00000KT 10SM SCT090 SCT120 19/15 A3006 RMK AO2 T01870150 10193 20179
KE38 201135Z AUTO 19007KT 10SM SCT080 SCT120 19/15 A3006 RMK AO2 T01900150
KE38 201115Z AUTO 19007KT 10SM BKN080 BKN100 19/15 A3006 RMK AO2 T01890151
KE38 201055Z AUTO 21008KT 10SM SCT080 19/15 A3005 RMK AO2 T01860151
KE38 201035Z AUTO 21006KT 10SM CLR 19/15 A3004 RMK AO2 T01850151
KE38 201015Z AUTO 22006KT 10SM CLR 18/15 A3004 RMK AO2 T01800150
KE38 200955Z AUTO 20004KT 10SM CLR 19/15 A3004 RMK AO2 T01880150
KE38 200935Z AUTO 20006KT 10SM CLR 19/15 A3005 RMK AO2 T01860150
KE38 200915Z AUTO 20005KT 10SM CLR 19/15 A3005 RMK AO2 T01850150
KE38 200855Z AUTO 21006KT 10SM CLR 19/15 A3006 RMK AO2 T01860148
KE38 200835Z AUTO 20007KT 10SM CLR 19/15 A3007 RMK AO2 T01850148
KE38 200815Z AUTO 19009G14KT 10SM CLR 19/15 A3006 RMK AO2 T01860147
KE38 200755Z AUTO 20008KT 10SM CLR 19/15 A3007 RMK AO2 T01900147
KE38 200735Z AUTO 21009KT 10SM CLR 19/15 A3008 RMK AO2 T01900146
KE38 200715Z AUTO 17005KT 10SM CLR 19/15 A3008 RMK AO2 T01900145
KE38 200655Z AUTO 17006KT 10SM CLR 19/15 A3007 RMK AO2 T01910147
KE38 200635Z AUTO 17005KT 10SM CLR 19/15 A3007 RMK AO2 T01920147
KE38 200615Z AUTO 20007KT 10SM CLR 19/15 A3007 RMK AO2 T01900150